createdAt,value
2018-09-27T00:00:44.017Z,91.98
2018-09-27T00:03:11.198Z,93.98
2018-09-27T00:05:38.327Z,95.31
2018-09-27T00:08:05.524Z,94.26
2018-09-27T00:10:32.684Z,94.68
2018-09-27T00:12:59.816Z,93.98
2018-09-27T00:15:26.945Z,92.96
2018-09-27T00:17:54.077Z,93.01
2018-09-27T00:20:21.273Z,93.77
2018-09-27T00:22:48.471Z,92.36
2018-09-27T00:25:15.581Z,91.87
2018-09-27T00:27:42.702Z,90.17
2018-09-27T00:30:09.869Z,88.77
2018-09-27T00:32:36.995Z,89.37
2018-09-27T00:35:04.320Z,90.34
2018-09-27T00:37:31.468Z,88.78
2018-09-27T00:39:58.616Z,88.21
2018-09-27T00:42:25.753Z,88.51
2018-09-27T00:44:52.896Z,88.22
2018-09-27T00:47:20.043Z,88.16
2018-09-27T00:49:47.187Z,88.81
2018-09-27T00:52:14.313Z,88.35
2018-09-27T00:54:41.445Z,89.60
2018-09-27T00:57:08.538Z,89.46
2018-09-27T00:59:35.753Z,89.68
2018-09-27T01:02:02.970Z,90.39
2018-09-27T01:04:30.159Z,89.12
2018-09-27T01:06:57.313Z,89.76
2018-09-27T01:09:24.477Z,89.96
2018-09-27T01:11:51.635Z,89.94
2018-09-27T01:14:18.844Z,89.66
2018-09-27T01:16:45.948Z,89.54
2018-09-27T01:19:13.075Z,90.13
2018-09-27T01:21:40.224Z,90.83
2018-09-27T01:24:07.439Z,90.49
2018-09-27T01:26:34.572Z,88.60
2018-09-27T01:29:01.775Z,87.74
2018-09-27T01:31:28.912Z,89.57
2018-09-27T01:33:56.104Z,93.08
2018-09-27T01:36:23.279Z,93.21
2018-09-27T01:38:50.466Z,92.16
2018-09-27T01:41:17.602Z,91.35
2018-09-27T01:43:44.835Z,91.01
2018-09-27T01:46:11.992Z,90.30
2018-09-27T01:48:39.135Z,90.87
2018-09-27T01:51:06.358Z,90.59
2018-09-27T01:53:33.509Z,90.30
2018-09-27T01:56:00.662Z,89.85
2018-09-27T01:58:28.043Z,89.32
2018-09-27T02:00:55.257Z,89.49
2018-09-27T02:03:22.447Z,92.58
2018-09-27T02:05:49.659Z,95.34
2018-09-27T02:08:16.914Z,95.46
2018-09-27T02:10:44.141Z,93.36
2018-09-27T02:13:11.315Z,92.23
2018-09-27T02:15:38.495Z,92.59
2018-09-27T02:18:05.636Z,94.58
2018-09-27T02:20:32.795Z,92.62
2018-09-27T02:22:59.929Z,91.65
2018-09-27T02:25:27.122Z,91.64
2018-09-27T02:27:54.316Z,90.98
2018-09-27T02:30:21.562Z,93.09
2018-09-27T02:32:48.749Z,91.90
2018-09-27T02:35:15.949Z,91.39
2018-09-27T02:37:43.069Z,92.22
2018-09-27T02:40:10.651Z,91.33
2018-09-27T02:42:37.853Z,91.18
2018-09-27T02:45:05.128Z,91.26
2018-09-27T02:47:32.286Z,91.41
2018-09-27T02:49:59.511Z,92.12
2018-09-27T02:52:26.731Z,92.20
2018-09-27T02:54:53.910Z,92.11
2018-09-27T02:57:21.057Z,91.62
2018-09-27T02:59:48.253Z,90.65
2018-09-27T03:02:15.436Z,89.47
2018-09-27T03:04:42.619Z,88.42
2018-09-27T03:07:09.864Z,88.84
2018-09-27T03:09:37.092Z,88.77
2018-09-27T03:12:04.284Z,89.23
2018-09-27T03:14:31.517Z,89.44
2018-09-27T03:16:58.692Z,89.38
2018-09-27T03:19:25.889Z,89.90
2018-09-27T03:21:53.059Z,90.29
2018-09-27T03:24:20.218Z,90.72
2018-09-27T03:26:47.423Z,90.75
2018-09-27T03:29:14.633Z,90.19
2018-09-27T03:31:41.806Z,90.56
2018-09-27T03:34:08.990Z,91.50
2018-09-27T03:36:36.197Z,92.98
2018-09-27T03:39:05.084Z,91.72
2018-09-27T03:41:32.281Z,91.64
2018-09-27T03:43:59.480Z,92.17
2018-09-27T03:46:26.697Z,91.88
2018-09-27T03:48:54.535Z,92.01
2018-09-27T03:51:21.776Z,92.27
2018-09-27T03:53:48.992Z,91.89
2018-09-27T03:56:16.297Z,91.98
2018-09-27T03:58:43.531Z,92.72
2018-09-27T04:01:10.746Z,92.50
2018-09-27T04:03:37.893Z,91.80
2018-09-27T04:06:05.161Z,92.15
2018-09-27T04:08:32.376Z,94.11
2018-09-27T04:10:59.556Z,94.22
2018-09-27T04:13:26.718Z,93.16
2018-09-27T04:15:53.925Z,92.96
2018-09-27T04:18:21.148Z,96.18
2018-09-27T04:20:51.380Z,96.44
2018-09-27T04:23:19.928Z,96.63
2018-09-27T04:25:47.170Z,95.50
2018-09-27T04:28:14.358Z,94.78
2018-09-27T04:30:41.566Z,95.11
2018-09-27T04:33:08.719Z,96.36
2018-09-27T04:35:35.868Z,96.21
2018-09-27T04:38:03.265Z,96.25
2018-09-27T04:40:30.408Z,95.66
2018-09-27T04:42:57.549Z,96.39
2018-09-27T04:45:24.756Z,96.10
2018-09-27T04:47:51.885Z,94.79
2018-09-27T04:50:19.053Z,94.23
2018-09-27T04:52:46.211Z,94.00
2018-09-27T04:55:13.410Z,93.63
2018-09-27T04:57:40.551Z,93.29
2018-09-27T05:00:07.726Z,92.50
2018-09-27T05:02:34.878Z,90.66
2018-09-27T05:05:02.783Z,91.27
2018-09-27T05:07:30.023Z,91.65
2018-09-27T05:09:57.183Z,90.89
2018-09-27T05:12:24.339Z,89.42
2018-09-27T05:14:51.473Z,88.29
2018-09-27T05:17:18.637Z,89.81
2018-09-27T05:19:45.797Z,91.49
2018-09-27T05:22:12.984Z,95.99
2018-09-27T05:24:40.120Z,97.38
2018-09-27T05:27:07.466Z,96.56
2018-09-27T05:29:34.566Z,94.92
2018-09-27T05:32:01.771Z,93.67
2018-09-27T05:34:29.039Z,93.59
2018-09-27T05:36:56.249Z,93.63
2018-09-27T05:39:23.499Z,93.73
2018-09-27T05:41:50.648Z,93.69
2018-09-27T05:44:17.775Z,93.78
2018-09-27T05:46:45.012Z,94.56
2018-09-27T05:49:12.191Z,95.47
2018-09-27T05:51:39.426Z,95.80
2018-09-27T05:54:06.525Z,95.60
2018-09-27T05:56:34.478Z,96.01
2018-09-27T05:59:01.617Z,94.99
2018-09-27T06:01:28.767Z,94.16
2018-09-27T06:03:55.936Z,94.96
2018-09-27T06:06:23.095Z,94.96
2018-09-27T06:08:51.275Z,94.95
2018-09-27T06:11:18.900Z,93.96
2018-09-27T06:13:46.025Z,90.64
2018-09-27T06:16:13.200Z,89.72
2018-09-27T06:18:40.440Z,88.62
2018-09-27T06:21:07.637Z,90.18
2018-09-27T06:23:34.804Z,89.80
2018-09-27T06:26:01.993Z,91.38
2018-09-27T06:28:29.171Z,91.65
2018-09-27T06:30:56.288Z,92.18
2018-09-27T06:33:23.541Z,92.81
2018-09-27T06:35:50.676Z,93.59
2018-09-27T06:38:18.099Z,93.39
2018-09-27T06:40:45.311Z,92.85
2018-09-27T06:43:12.451Z,92.44
2018-09-27T06:45:39.613Z,92.37
2018-09-27T06:48:06.810Z,92.05
2018-09-27T06:50:33.980Z,91.88
2018-09-27T06:53:01.138Z,90.28
2018-09-27T06:55:28.476Z,89.10
2018-09-27T06:57:55.487Z,88.00
2018-09-27T07:00:22.633Z,87.46
2018-09-27T07:02:49.865Z,85.74
2018-09-27T07:05:17.048Z,86.61
2018-09-27T07:07:44.216Z,85.05
2018-09-27T07:10:11.416Z,84.45
2018-09-27T07:12:38.609Z,83.79
2018-09-27T07:15:05.803Z,83.59
2018-09-27T07:17:32.925Z,82.81
2018-09-27T07:20:00.100Z,82.47
2018-09-27T07:22:27.287Z,82.03
2018-09-27T07:24:54.435Z,80.98
2018-09-27T07:27:21.615Z,78.68
2018-09-27T07:29:48.785Z,78.14
2018-09-27T07:32:15.994Z,76.93
2018-09-27T07:34:43.195Z,75.72
2018-09-27T07:37:10.367Z,75.44
2018-09-27T07:39:37.528Z,75.44
2018-09-27T07:42:04.709Z,74.66
2018-09-27T07:44:31.908Z,73.79
2018-09-27T07:46:59.092Z,73.59
2018-09-27T07:49:26.311Z,74.08
2018-09-27T07:51:53.503Z,74.27
2018-09-27T07:54:20.704Z,74.60
2018-09-27T07:56:47.841Z,71.74
2018-09-27T07:59:14.941Z,71.45
2018-09-27T08:01:42.108Z,71.20
2018-09-27T08:04:09.429Z,71.82
2018-09-27T08:06:36.568Z,74.28
2018-09-27T08:09:05.996Z,70.88
2018-09-27T08:11:33.197Z,70.66
2018-09-27T08:14:00.316Z,70.35
2018-09-27T08:16:27.470Z,69.49
2018-09-27T08:18:54.609Z,69.69
2018-09-27T08:21:21.840Z,71.35
2018-09-27T08:23:48.953Z,72.41
2018-09-27T08:26:16.117Z,70.80
2018-09-27T08:28:43.317Z,70.25
2018-09-27T08:31:10.554Z,70.30
2018-09-27T08:33:37.715Z,70.05
2018-09-27T08:36:05.474Z,69.50
2018-09-27T08:38:32.660Z,69.09
2018-09-27T08:41:00.073Z,69.88
2018-09-27T08:43:27.212Z,69.08
2018-09-27T08:45:54.386Z,70.12
2018-09-27T08:48:21.553Z,67.26
2018-09-27T08:50:48.718Z,67.76
2018-09-27T08:53:15.916Z,66.11
2018-09-27T08:55:43.077Z,66.57
2018-09-27T08:58:10.233Z,68.25
2018-09-27T09:00:37.416Z,67.82
2018-09-27T09:03:04.569Z,67.71
2018-09-27T09:05:31.743Z,66.01
2018-09-27T09:07:58.918Z,66.77
2018-09-27T09:10:26.107Z,64.68
2018-09-27T09:12:53.301Z,64.96
2018-09-27T09:15:20.664Z,65.09
2018-09-27T09:17:47.843Z,65.07
2018-09-27T09:20:15.044Z,65.55
2018-09-27T09:22:42.337Z,63.94
2018-09-27T09:25:09.460Z,63.58
2018-09-27T09:27:36.738Z,62.07
2018-09-27T09:30:04.253Z,61.20
2018-09-27T09:32:31.433Z,62.33
2018-09-27T09:34:58.601Z,61.62
2018-09-27T09:37:25.760Z,60.92
2018-09-27T09:39:52.909Z,61.52
2018-09-27T09:42:20.113Z,61.77
2018-09-27T09:44:47.428Z,60.37
2018-09-27T09:47:14.658Z,59.40
2018-09-27T09:49:41.788Z,60.64
2018-09-27T09:52:09.000Z,57.57
2018-09-27T09:54:36.202Z,58.66
2018-09-27T09:57:03.376Z,58.13
2018-09-27T09:59:30.559Z,58.90
2018-09-27T10:01:57.873Z,59.12
2018-09-27T10:04:25.071Z,59.40
2018-09-27T10:06:52.292Z,59.10
2018-09-27T10:09:19.471Z,58.50
2018-09-27T10:11:46.649Z,56.26
2018-09-27T10:14:13.813Z,56.71
2018-09-27T10:16:41.030Z,55.41
2018-09-27T10:19:08.298Z,55.63
2018-09-27T10:21:35.522Z,54.80
2018-09-27T10:24:02.672Z,55.61
2018-09-27T10:26:29.898Z,55.03
2018-09-27T10:28:57.092Z,54.70
2018-09-27T10:31:24.304Z,53.86
2018-09-27T10:33:51.551Z,54.74
2018-09-27T10:36:18.821Z,55.80
2018-09-27T10:38:46.039Z,53.05
2018-09-27T10:41:13.233Z,53.21
2018-09-27T10:43:40.447Z,52.83
2018-09-27T10:46:07.623Z,50.40
2018-09-27T10:48:34.844Z,51.77
2018-09-27T10:51:02.089Z,50.54
2018-09-27T10:53:29.294Z,47.86
2018-09-27T10:55:56.460Z,46.72
2018-09-27T10:58:23.685Z,47.88
2018-09-27T11:00:50.923Z,47.47
2018-09-27T11:03:18.148Z,49.03
2018-09-27T11:05:45.423Z,48.71
2018-09-27T11:08:12.609Z,46.49
2018-09-27T11:10:39.829Z,45.36
2018-09-27T11:13:07.040Z,43.26
2018-09-27T11:15:34.244Z,42.19
2018-09-27T11:18:01.450Z,40.98
2018-09-27T11:20:28.634Z,41.48
2018-09-27T11:22:55.917Z,41.68
2018-09-27T11:25:23.126Z,40.45
2018-09-27T11:27:50.372Z,40.33
2018-09-27T11:30:23.143Z,39.53
2018-09-27T11:32:50.414Z,38.08
2018-09-27T11:35:17.542Z,38.47
2018-09-27T11:37:44.720Z,35.94
2018-09-27T11:40:11.932Z,34.44
2018-09-27T11:42:39.481Z,34.16
2018-09-27T11:45:07.017Z,31.38
2018-09-27T11:47:34.241Z,33.28
2018-09-27T11:50:01.500Z,32.04
2018-09-27T11:52:28.764Z,31.82
2018-09-27T11:54:55.987Z,29.01
2018-09-27T11:57:23.194Z,30.39
2018-09-27T11:59:50.439Z,30.28
2018-09-27T12:02:17.695Z,29.97
2018-09-27T12:04:44.877Z,29.90
2018-09-27T12:07:12.405Z,29.95
2018-09-27T12:09:39.564Z,30.92
2018-09-27T12:12:06.853Z,30.33
2018-09-27T12:14:34.052Z,29.28
2018-09-27T12:17:01.264Z,30.49
2018-09-27T12:19:28.660Z,30.29
2018-09-27T12:21:55.784Z,31.17
2018-09-27T12:24:22.962Z,31.39
2018-09-27T12:26:50.203Z,30.70
2018-09-27T12:29:17.448Z,30.77
2018-09-27T12:31:44.739Z,30.49
2018-09-27T12:34:12.098Z,31.25
2018-09-27T12:36:39.316Z,31.03
2018-09-27T12:39:07.926Z,31.68
2018-09-27T12:41:35.219Z,31.99
2018-09-27T12:44:02.371Z,31.18
2018-09-27T12:46:29.654Z,31.46
2018-09-27T12:48:56.806Z,29.66
2018-09-27T12:51:24.038Z,30.16
2018-09-27T12:53:51.329Z,28.79
2018-09-27T12:56:18.553Z,29.11
2018-09-27T12:58:45.795Z,29.19
2018-09-27T13:01:13.009Z,28.70
2018-09-27T13:03:40.255Z,25.31
2018-09-27T13:06:07.494Z,25.28
2018-09-27T13:08:34.741Z,22.74
2018-09-27T13:11:01.993Z,23.56
2018-09-27T13:13:29.395Z,24.25
2018-09-27T13:15:56.434Z,24.53
2018-09-27T13:18:23.678Z,22.25
2018-09-27T13:20:50.937Z,22.64
2018-09-27T13:23:18.130Z,23.97
2018-09-27T13:25:45.380Z,23.56
2018-09-27T13:28:12.520Z,23.10
2018-09-27T13:30:39.706Z,23.50
2018-09-27T13:33:07.000Z,22.87
2018-09-27T13:35:34.149Z,22.90
2018-09-27T13:38:01.389Z,21.71
2018-09-27T13:40:28.605Z,22.43
2018-09-27T13:42:55.860Z,21.11
2018-09-27T13:45:23.081Z,21.62
2018-09-27T13:47:50.302Z,21.34
2018-09-27T13:50:17.590Z,20.48
2018-09-27T13:52:44.820Z,21.77
2018-09-27T13:55:12.161Z,20.50
2018-09-27T13:57:39.270Z,21.00
2018-09-27T14:00:07.041Z,22.40
2018-09-27T14:02:34.289Z,20.47
2018-09-27T14:05:01.528Z,21.01
2018-09-27T14:07:28.780Z,18.98
2018-09-27T14:09:55.988Z,19.97
2018-09-27T14:12:23.156Z,19.74
2018-09-27T14:14:50.404Z,19.10
2018-09-27T14:17:17.615Z,18.44
2018-09-27T14:19:44.801Z,19.39
2018-09-27T14:22:12.012Z,18.16
2018-09-27T14:24:39.232Z,17.99
2018-09-27T14:27:06.585Z,15.10
2018-09-27T14:29:33.813Z,16.68
2018-09-27T14:32:01.001Z,16.30
2018-09-27T14:34:28.243Z,16.22
2018-09-27T14:36:55.544Z,16.90
2018-09-27T14:39:22.846Z,17.82
2018-09-27T14:41:50.111Z,16.16
2018-09-27T14:44:17.369Z,16.34
2018-09-27T14:46:44.707Z,17.67
2018-09-27T14:49:12.161Z,18.71
2018-09-27T14:51:40.083Z,20.79
2018-09-27T14:54:08.170Z,22.51
2018-09-27T14:56:36.647Z,22.04
2018-09-27T14:59:03.902Z,22.42
2018-09-27T15:01:31.195Z,23.70
2018-09-27T15:03:58.493Z,23.04
2018-09-27T15:06:25.794Z,23.70
2018-09-27T15:08:53.020Z,24.03
2018-09-27T15:11:20.245Z,23.03
2018-09-27T15:13:47.456Z,21.60
2018-09-27T15:16:14.738Z,21.73
2018-09-27T15:18:41.898Z,21.17
2018-09-27T15:21:09.105Z,22.39
2018-09-27T15:23:36.448Z,23.38
2018-09-27T15:26:03.631Z,25.66
2018-09-27T15:28:30.802Z,26.69
2018-09-27T15:30:58.043Z,24.58
2018-09-27T15:33:25.320Z,25.23
2018-09-27T15:35:52.547Z,27.76
2018-09-27T15:38:19.740Z,29.19
2018-09-27T15:40:47.035Z,29.70
2018-09-27T15:43:14.204Z,29.81
2018-09-27T15:45:41.381Z,30.25
2018-09-27T15:48:08.672Z,31.10
2018-09-27T15:50:35.924Z,30.02
2018-09-27T15:53:03.192Z,30.64
2018-09-27T15:55:30.414Z,29.89
2018-09-27T15:57:57.585Z,31.28
2018-09-27T16:00:24.793Z,30.30
2018-09-27T16:02:52.157Z,31.87
2018-09-27T16:05:19.350Z,32.05
2018-09-27T16:07:46.510Z,31.93
2018-09-27T16:10:13.668Z,32.39
2018-09-27T16:12:40.881Z,33.79
2018-09-27T16:15:08.097Z,33.13
2018-09-27T16:17:35.354Z,34.67
2018-09-27T16:20:02.704Z,33.39
2018-09-27T16:22:29.909Z,36.06
2018-09-27T16:24:57.117Z,34.81
2018-09-27T16:27:24.333Z,37.88
2018-09-27T16:29:51.569Z,38.81
2018-09-27T16:32:18.737Z,37.23
2018-09-27T16:34:45.945Z,39.02
2018-09-27T16:37:13.270Z,41.76
2018-09-27T16:39:40.593Z,42.82
2018-09-27T16:42:07.788Z,44.02
2018-09-27T16:44:34.940Z,45.18
2018-09-27T16:47:02.238Z,45.61
2018-09-27T16:49:29.457Z,47.31
2018-09-27T16:51:56.625Z,48.30
2018-09-27T16:54:23.860Z,47.48
2018-09-27T16:56:51.024Z,48.64
2018-09-27T16:59:18.196Z,48.53
2018-09-27T17:01:45.441Z,48.77
2018-09-27T17:04:12.527Z,49.59
2018-09-27T17:06:39.692Z,49.64
2018-09-27T17:09:07.362Z,49.93
2018-09-27T17:11:34.553Z,49.83
2018-09-27T17:14:01.705Z,51.50
2018-09-27T17:16:28.891Z,51.70
2018-09-27T17:18:56.111Z,52.95
2018-09-27T17:21:23.325Z,52.93
2018-09-27T17:23:50.545Z,53.62
2018-09-27T17:26:17.725Z,53.44
2018-09-27T17:28:45.020Z,54.56
2018-09-27T17:31:12.170Z,55.01
2018-09-27T17:33:39.380Z,56.06
2018-09-27T17:36:06.755Z,55.60
2018-09-27T17:38:33.947Z,56.08
2018-09-27T17:41:01.133Z,56.85
2018-09-27T17:43:28.283Z,60.36
2018-09-27T17:45:55.571Z,59.81
2018-09-27T17:48:31.209Z,60.37
2018-09-27T17:50:58.579Z,60.42
2018-09-27T17:53:29.168Z,60.61
2018-09-27T17:56:03.820Z,60.34
2018-09-27T17:58:34.199Z,60.54
2018-09-27T18:01:04.067Z,61.23
2018-09-27T18:03:31.208Z,60.85
2018-09-27T18:05:58.396Z,61.59
2018-09-27T18:08:25.541Z,61.78
2018-09-27T18:10:52.739Z,61.90
2018-09-27T18:13:19.909Z,62.40
2018-09-27T18:15:47.108Z,61.74
2018-09-27T18:18:14.347Z,61.49
2018-09-27T18:20:41.558Z,63.03
2018-09-27T18:23:08.723Z,64.65
2018-09-27T18:25:35.982Z,65.74
2018-09-27T18:28:03.281Z,65.03
2018-09-27T18:30:30.623Z,65.99
2018-09-27T18:32:57.917Z,65.79
2018-09-27T18:35:25.197Z,66.09
2018-09-27T18:37:52.542Z,65.66
2018-09-27T18:40:19.658Z,67.24
2018-09-27T18:42:46.891Z,69.78
2018-09-27T18:45:14.134Z,72.10
2018-09-27T18:47:41.374Z,72.31
2018-09-27T18:50:08.890Z,73.89
2018-09-27T18:52:36.100Z,74.05
2018-09-27T18:55:03.712Z,73.03
2018-09-27T18:57:31.043Z,72.12
2018-09-27T18:59:58.204Z,71.97
2018-09-27T19:02:25.451Z,71.79
2018-09-27T19:04:52.745Z,72.44
2018-09-27T19:07:19.949Z,72.68
2018-09-27T19:09:47.185Z,72.75
2018-09-27T19:12:14.400Z,73.36
2018-09-27T19:14:41.636Z,73.61
2018-09-27T19:17:08.887Z,73.87
2018-09-27T19:19:36.084Z,73.51
2018-09-27T19:22:03.311Z,74.03
2018-09-27T19:24:30.514Z,73.92
2018-09-27T19:26:57.691Z,74.23
2018-09-27T19:29:24.920Z,74.46
2018-09-27T19:31:52.153Z,74.96
2018-09-27T19:34:19.428Z,75.73
2018-09-27T19:36:46.698Z,75.74
2018-09-27T19:39:13.983Z,75.13
2018-09-27T19:41:42.133Z,74.82
2018-09-27T19:44:09.713Z,75.43
2018-09-27T19:46:36.931Z,75.03
2018-09-27T19:49:04.033Z,75.25
2018-09-27T19:51:31.267Z,76.95
2018-09-27T19:53:58.517Z,77.06
2018-09-27T19:56:25.758Z,76.40
2018-09-27T19:58:52.982Z,77.49
2018-09-27T20:01:20.245Z,79.46
2018-09-27T20:03:47.462Z,79.11
2018-09-27T20:06:14.751Z,78.96
2018-09-27T20:08:41.960Z,78.41
2018-09-27T20:11:09.150Z,78.56
2018-09-27T20:13:36.386Z,78.71
2018-09-27T20:29:03.249Z,79.67
2018-09-27T20:31:30.432Z,79.88
2018-09-27T20:33:57.782Z,78.57
2018-09-27T20:36:25.088Z,77.18
2018-09-27T20:38:52.255Z,77.72
2018-09-27T20:41:19.501Z,77.90
2018-09-27T20:43:46.704Z,77.75
2018-09-27T20:46:13.907Z,77.29
2018-09-27T20:48:41.102Z,78.48
2018-09-27T20:51:08.285Z,83.40
2018-09-27T20:53:35.430Z,84.52
2018-09-27T20:56:02.590Z,84.84
2018-09-27T20:58:29.928Z,83.35
2018-09-27T21:00:57.260Z,83.37
2018-09-27T21:03:24.557Z,82.24
2018-09-27T21:05:51.701Z,83.15
2018-09-27T21:08:18.902Z,83.16
2018-09-27T21:10:46.037Z,82.74
2018-09-27T21:13:13.253Z,82.13
2018-09-27T21:15:40.416Z,82.54
2018-09-27T21:18:07.555Z,82.91
2018-09-27T21:20:34.688Z,83.04
2018-09-27T21:23:01.794Z,83.91
2018-09-27T21:25:28.933Z,83.34
2018-09-27T21:27:56.162Z,83.33
2018-09-27T21:30:23.328Z,83.39
2018-09-27T21:32:50.472Z,82.82
2018-09-27T21:35:17.619Z,82.31
2018-09-27T21:37:44.752Z,82.04
2018-09-27T21:40:11.913Z,82.26
2018-09-27T21:42:39.077Z,83.06
2018-09-27T21:45:06.243Z,85.36
2018-09-27T21:47:33.470Z,86.94
2018-09-27T21:50:00.660Z,87.17
2018-09-27T21:52:27.803Z,85.29
2018-09-27T21:54:54.956Z,84.36
2018-09-27T21:57:22.107Z,83.96
2018-09-27T21:59:49.267Z,84.01
2018-09-27T22:02:16.453Z,85.07
2018-09-27T22:04:44.296Z,84.97
2018-09-27T22:07:11.440Z,84.12
2018-09-27T22:09:38.531Z,83.68
2018-09-27T22:12:05.724Z,82.90
2018-09-27T22:14:32.884Z,83.53
2018-09-27T22:17:00.037Z,83.65
2018-09-27T22:19:27.200Z,83.15
2018-09-27T22:21:54.320Z,82.28
2018-09-27T22:24:21.448Z,83.05
2018-09-27T22:26:48.584Z,83.29
2018-09-27T22:29:15.733Z,84.00
2018-09-27T22:31:42.894Z,83.92
2018-09-27T22:34:10.030Z,84.48
2018-09-27T22:36:37.244Z,85.13
2018-09-27T22:39:05.653Z,84.34
2018-09-27T22:41:32.758Z,85.27
2018-09-27T22:43:59.928Z,86.31
2018-09-27T22:46:27.064Z,85.86
2018-09-27T22:48:54.221Z,85.51
2018-09-27T22:51:21.399Z,85.23
2018-09-27T22:53:48.511Z,85.22
2018-09-27T22:56:15.652Z,84.93
2018-09-27T22:58:42.843Z,84.70
2018-09-27T23:01:09.993Z,84.41
2018-09-27T23:03:37.137Z,84.43
2018-09-27T23:06:04.339Z,84.28
2018-09-27T23:08:31.536Z,85.11
2018-09-27T23:10:58.692Z,85.91
2018-09-27T23:13:25.928Z,85.59
2018-09-27T23:15:53.073Z,85.68
2018-09-27T23:18:20.234Z,85.41
2018-09-27T23:20:47.392Z,84.27
2018-09-27T23:23:14.577Z,84.83
2018-09-27T23:25:41.713Z,85.21
2018-09-27T23:28:08.909Z,85.17
2018-09-27T23:30:36.050Z,85.12
2018-09-27T23:33:03.189Z,85.55
2018-09-27T23:35:30.387Z,86.32
2018-09-27T23:37:57.492Z,87.57
2018-09-27T23:40:24.710Z,87.86
2018-09-27T23:42:51.905Z,87.73
2018-09-27T23:45:19.022Z,87.28
2018-09-27T23:47:46.184Z,86.63
2018-09-27T23:50:13.402Z,86.47
2018-09-27T23:52:40.776Z,85.60
2018-09-27T23:55:08.000Z,85.20
2018-09-27T23:57:35.165Z,85.40
